Accueil
METAR-TAF:

METAR-TAF

Aéroports :

Bombay, Inde

latitude: 19-05-53N, longitude: 072-50-02E, altitude: 4 m

Observation

Le bulletin a été fait il y a 7 heures et 8 minutes, à 12:30 UTC
Vent 5 kt de sud/sud-ouest
Température 29°C
Humidité 79%
Pression 997 hPa
Visibilité: 4000 m
Quelques nuages à une hauteur de 2000 ft
Quelques nuages à une hauteur de 3000 ft, Cumulonimbus.
Nuages épars à une hauteur de 2500 ft
brume,

METAR: VAJJ 241230Z 20005KT 4000 BR FEW020 FEW030CB SCT025 29/25 Q0997 NOSIG

Heure: 01:08 (19:38 UTC)


TAF: absent

Observations et prévisions météorologiques de plus de 4000 aéroports (messages METAR et TAF).

Les stations disponibles sont représentées par des disques jaunes et rouges sur la carte.

Passer la souris dessus pour voir le nom de la station.

Cliquer dessus pour voir les observations et prévisions météorologiques.

Pour changer de carte: cliquez sur les boutons verts avec une croix noire pour zoomer, sur le bouton vert avec un tiret pour effectuer un zoom arrière, ou sur les flèches vertes pour les cartes adjacentes.


METAR-TAF: